createdAt,value
2018-03-20T00:02:05.224Z,74.63
2018-03-20T00:04:33.699Z,74.45
2018-03-20T00:07:03.308Z,74.42
2018-03-20T00:09:32.726Z,74.37
2018-03-20T00:12:01.654Z,74.46
2018-03-20T00:14:30.155Z,74.40
2018-03-20T00:16:58.742Z,74.19
2018-03-20T00:19:27.264Z,73.96
2018-03-20T00:21:55.745Z,73.86
2018-03-20T00:24:24.267Z,73.76
2018-03-20T00:26:52.838Z,73.73
2018-03-20T00:29:22.379Z,73.67
2018-03-20T00:31:50.970Z,73.54
2018-03-20T00:34:19.388Z,73.51
2018-03-20T00:36:47.904Z,73.49
2018-03-20T00:39:16.470Z,73.49
2018-03-20T00:41:45.046Z,73.36
2018-03-20T00:44:13.599Z,73.30
2018-03-20T00:46:42.921Z,73.23
2018-03-20T00:49:11.513Z,73.15
2018-03-20T00:51:39.997Z,73.22
2018-03-20T00:54:09.443Z,73.26
2018-03-20T00:56:38.082Z,72.91
2018-03-20T00:59:06.977Z,72.62
2018-03-20T01:01:35.557Z,72.78
2018-03-20T01:04:04.139Z,72.77
2018-03-20T01:06:34.327Z,72.58
2018-03-20T01:09:02.950Z,72.70
2018-03-20T01:11:31.391Z,72.72
2018-03-20T01:13:59.851Z,72.50
2018-03-20T01:16:28.367Z,71.77
2018-03-20T01:18:56.945Z,71.50
2018-03-20T01:21:25.398Z,71.18
2018-03-20T01:23:53.892Z,70.98
2018-03-20T01:26:22.384Z,70.79
2018-03-20T01:28:50.826Z,70.81
2018-03-20T01:31:19.310Z,70.69
2018-03-20T01:33:48.134Z,70.54
2018-03-20T01:36:16.723Z,70.49
2018-03-20T01:38:46.024Z,71.01
2018-03-20T01:41:14.663Z,71.44
2018-03-20T01:43:43.291Z,71.79
2018-03-20T01:46:12.073Z,71.92
2018-03-20T01:48:40.634Z,71.77
2018-03-20T01:51:09.769Z,72.15
2018-03-20T01:53:39.227Z,71.91
2018-03-20T01:56:08.279Z,72.22
2018-03-20T01:58:36.937Z,72.85
2018-03-20T02:01:06.283Z,73.68
2018-03-20T02:03:34.925Z,74.07
2018-03-20T02:06:03.408Z,74.86
2018-03-20T02:08:33.494Z,75.41
2018-03-20T02:11:01.999Z,75.30
2018-03-20T02:13:30.517Z,76.24
2018-03-20T02:16:00.018Z,76.53
2018-03-20T02:18:28.617Z,76.52
2018-03-20T02:20:57.154Z,76.84
2018-03-20T02:23:25.681Z,76.98
2018-03-20T02:25:54.832Z,77.12
2018-03-20T02:28:23.293Z,77.20
2018-03-20T02:30:51.971Z,76.54
2018-03-20T02:33:20.456Z,76.17
2018-03-20T02:35:48.970Z,75.99
2018-03-20T02:38:17.519Z,75.39
2018-03-20T02:40:46.054Z,74.89
2018-03-20T02:43:14.484Z,74.74
2018-03-20T02:45:43.198Z,74.76
2018-03-20T02:48:11.654Z,75.05
2018-03-20T02:50:40.191Z,75.05
2018-03-20T02:53:09.051Z,74.96
2018-03-20T02:55:37.577Z,74.71
2018-03-20T02:58:06.163Z,74.51
2018-03-20T03:00:34.858Z,74.44
2018-03-20T03:03:03.391Z,74.14
2018-03-20T03:05:31.858Z,74.09
2018-03-20T03:08:01.109Z,73.94
2018-03-20T03:10:29.536Z,73.78
2018-03-20T03:12:58.060Z,73.89
2018-03-20T03:15:26.945Z,73.97
2018-03-20T03:17:55.493Z,74.45
2018-03-20T03:20:23.925Z,74.72
2018-03-20T03:22:52.711Z,74.70
2018-03-20T03:25:21.394Z,74.83
2018-03-20T03:27:49.973Z,74.78
2018-03-20T03:30:18.460Z,74.65
2018-03-20T03:32:47.959Z,74.56
2018-03-20T03:35:16.442Z,74.55
2018-03-20T03:37:45.947Z,74.55
2018-03-20T03:40:15.453Z,74.57
2018-03-20T03:42:43.891Z,74.65
2018-03-20T03:45:13.287Z,74.76
2018-03-20T03:47:41.823Z,74.67
2018-03-20T03:50:10.663Z,74.53
2018-03-20T03:52:39.944Z,74.63
2018-03-20T03:55:08.492Z,74.69
2018-03-20T03:57:37.134Z,74.75
2018-03-20T04:00:06.389Z,74.66
2018-03-20T04:02:35.891Z,74.66
2018-03-20T04:05:04.753Z,74.69
2018-03-20T04:07:35.054Z,74.77
2018-03-20T04:10:04.288Z,74.82
2018-03-20T04:12:32.747Z,74.95
2018-03-20T04:15:01.267Z,75.18
2018-03-20T04:17:29.726Z,75.45
2018-03-20T04:19:58.204Z,75.61
2018-03-20T04:22:26.796Z,75.74
2018-03-20T04:24:55.278Z,75.83
2018-03-20T04:27:23.803Z,75.76
2018-03-20T04:29:52.656Z,75.64
2018-03-20T04:32:21.118Z,75.64
2018-03-20T04:34:49.548Z,75.56
2018-03-20T04:37:18.057Z,75.45
2018-03-20T04:39:46.534Z,75.41
2018-03-20T04:42:15.006Z,75.40
2018-03-20T04:44:44.101Z,75.51
2018-03-20T04:47:12.901Z,75.46
2018-03-20T04:49:41.381Z,75.55
2018-03-20T04:52:10.204Z,75.54
2018-03-20T04:54:38.948Z,75.67
2018-03-20T04:57:07.695Z,75.74
2018-03-20T04:59:37.302Z,75.76
2018-03-20T05:02:05.806Z,75.91
2018-03-20T05:04:34.321Z,76.02
2018-03-20T05:07:02.868Z,76.05
2018-03-20T05:09:31.374Z,76.08
2018-03-20T05:11:59.868Z,76.07
2018-03-20T05:14:28.367Z,76.15
2018-03-20T05:16:56.853Z,76.03
2018-03-20T05:22:47.982Z,75.64
2018-03-20T05:25:16.814Z,75.51
2018-03-20T05:27:46.061Z,75.45
2018-03-20T05:30:14.540Z,75.21
2018-03-20T05:32:43.155Z,74.94
2018-03-20T05:35:11.741Z,74.71
2018-03-20T05:37:40.242Z,74.72
2018-03-20T05:40:08.912Z,74.51
2018-03-20T05:42:37.403Z,74.27
2018-03-20T05:45:05.944Z,73.89
2018-03-20T05:47:40.989Z,73.61
2018-03-20T05:50:14.911Z,73.01
2018-03-20T05:52:43.571Z,72.40
2018-03-20T05:55:12.046Z,72.18
2018-03-20T05:57:40.561Z,72.13
2018-03-20T06:00:10.164Z,71.72
2018-03-20T06:02:38.645Z,71.38
2018-03-20T06:05:07.196Z,71.15
2018-03-20T06:07:35.823Z,70.83
2018-03-20T06:10:04.408Z,70.62
2018-03-20T06:12:32.885Z,70.59
2018-03-20T06:15:03.042Z,70.24
2018-03-20T06:17:35.790Z,70.14
2018-03-20T06:20:04.373Z,69.95
2018-03-20T06:22:32.848Z,69.76
2018-03-20T06:25:01.272Z,69.38
2018-03-20T06:27:29.891Z,69.25
2018-03-20T06:29:58.392Z,68.87
2018-03-20T06:32:26.984Z,68.71
2018-03-20T06:34:55.431Z,68.50
2018-03-20T06:37:23.891Z,68.26
2018-03-20T06:39:52.945Z,68.22
2018-03-20T06:42:21.385Z,68.04
2018-03-20T06:44:49.808Z,67.91
2018-03-20T06:47:18.239Z,68.02
2018-03-20T06:49:46.749Z,67.76
2018-03-20T06:52:15.208Z,67.28
2018-03-20T06:54:43.762Z,67.17
2018-03-20T06:57:13.617Z,66.96
2018-03-20T06:59:42.645Z,66.71
2018-03-20T07:02:11.224Z,66.58
2018-03-20T07:04:41.209Z,66.18
2018-03-20T07:07:09.688Z,65.39
2018-03-20T07:09:38.148Z,65.07
2018-03-20T07:12:06.928Z,65.12
2018-03-20T07:14:47.089Z,64.98
2018-03-20T07:17:15.914Z,65.04
2018-03-20T07:19:44.440Z,64.69
2018-03-20T07:22:13.060Z,64.84
2018-03-20T07:24:41.766Z,64.59
2018-03-20T07:27:10.265Z,64.43
2018-03-20T07:29:38.872Z,64.43
2018-03-20T07:32:07.471Z,64.13
2018-03-20T07:34:36.048Z,64.19
2018-03-20T07:37:04.592Z,64.24
2018-03-20T07:39:33.289Z,63.96
2018-03-20T07:42:01.722Z,63.69
2018-03-20T07:44:30.227Z,63.58
2018-03-20T07:46:59.573Z,63.61
2018-03-20T07:49:28.054Z,63.27
2018-03-20T07:51:56.501Z,62.99
2018-03-20T07:54:25.793Z,63.12
2018-03-20T07:56:54.310Z,63.33
2018-03-20T07:59:23.728Z,63.16
2018-03-20T08:01:52.321Z,62.86
2018-03-20T08:04:20.758Z,63.00
2018-03-20T08:06:49.405Z,62.81
2018-03-20T08:09:18.058Z,62.86
2018-03-20T08:11:46.549Z,62.48
2018-03-20T08:14:15.403Z,62.28
2018-03-20T08:16:45.273Z,62.09
2018-03-20T08:19:13.782Z,62.24
2018-03-20T08:21:42.434Z,62.21
2018-03-20T08:24:11.243Z,61.79
2018-03-20T08:26:39.874Z,61.89
2018-03-20T08:29:08.414Z,61.82
2018-03-20T08:31:36.949Z,61.75
2018-03-20T08:34:05.548Z,61.79
2018-03-20T08:36:34.103Z,61.71
2018-03-20T08:39:03.517Z,61.65
2018-03-20T08:41:31.993Z,61.30
2018-03-20T08:44:00.526Z,61.21
2018-03-20T08:46:29.219Z,61.01
2018-03-20T08:48:57.744Z,60.36
2018-03-20T08:51:26.192Z,60.98
2018-03-20T08:53:54.861Z,60.37
2018-03-20T08:56:23.290Z,60.57
2018-03-20T08:58:51.930Z,59.61
2018-03-20T09:01:20.431Z,58.94
2018-03-20T09:03:48.968Z,58.11
2018-03-20T09:06:17.739Z,57.10
2018-03-20T09:08:46.352Z,57.19
2018-03-20T09:11:15.007Z,56.15
2018-03-20T09:13:43.806Z,57.74
2018-03-20T09:16:13.008Z,57.83
2018-03-20T09:18:41.548Z,57.38
2018-03-20T09:21:10.218Z,56.65
2018-03-20T09:23:39.773Z,55.96
2018-03-20T09:26:08.470Z,55.66
2018-03-20T09:28:37.103Z,57.15
2018-03-20T09:31:05.811Z,56.41
2018-03-20T09:33:34.476Z,56.15
2018-03-20T09:36:02.963Z,56.00
2018-03-20T09:38:32.306Z,56.06
2018-03-20T09:41:00.733Z,56.54
2018-03-20T09:43:29.185Z,56.55
2018-03-20T09:45:58.465Z,55.81
2018-03-20T09:48:27.126Z,55.46
2018-03-20T09:50:55.576Z,55.84
2018-03-20T09:53:24.101Z,55.43
2018-03-20T09:55:52.582Z,55.49
2018-03-20T09:58:21.110Z,55.70
2018-03-20T10:00:49.638Z,53.73
2018-03-20T10:03:18.197Z,52.70
2018-03-20T10:05:47.327Z,52.75
2018-03-20T10:08:16.732Z,53.17
2018-03-20T10:10:45.307Z,53.07
2018-03-20T10:13:13.895Z,51.92
2018-03-20T10:15:42.633Z,50.27
2018-03-20T10:18:11.261Z,49.17
2018-03-20T10:20:39.800Z,48.79
2018-03-20T10:23:08.391Z,50.01
2018-03-20T10:25:37.274Z,48.95
2018-03-20T10:28:05.823Z,47.99
2018-03-20T10:30:34.545Z,48.43
2018-03-20T10:33:03.573Z,48.60
2018-03-20T10:35:33.350Z,48.75
2018-03-20T10:38:01.942Z,47.87
2018-03-20T10:40:30.407Z,46.60
2018-03-20T10:42:58.902Z,48.36
2018-03-20T10:45:27.527Z,48.54
2018-03-20T10:47:56.027Z,49.82
2018-03-20T10:50:25.511Z,48.35
2018-03-20T10:52:54.050Z,47.22
2018-03-20T10:55:22.485Z,46.48
2018-03-20T10:57:50.976Z,46.34
2018-03-20T11:03:27.884Z,43.81
2018-03-20T11:05:56.397Z,46.43
2018-03-20T11:08:24.815Z,45.94
2018-03-20T11:10:53.368Z,46.36
2018-03-20T11:13:21.939Z,46.61
2018-03-20T11:15:54.430Z,44.68
2018-03-20T11:18:22.931Z,45.59
2018-03-20T11:20:51.846Z,45.46
2018-03-20T11:23:20.329Z,45.51
2018-03-20T11:25:49.050Z,44.08
2018-03-20T11:28:17.531Z,43.48
2018-03-20T11:30:46.055Z,44.49
2018-03-20T11:33:14.612Z,44.94
2018-03-20T11:35:43.248Z,44.52
2018-03-20T11:38:11.880Z,44.27
2018-03-20T11:40:40.534Z,43.18
2018-03-20T11:43:09.293Z,44.00
2018-03-20T11:45:42.788Z,43.48
2018-03-20T11:48:11.646Z,43.73
2018-03-20T11:50:40.254Z,43.43
2018-03-20T11:53:09.047Z,42.48
2018-03-20T11:55:37.864Z,42.68
2018-03-20T11:58:06.617Z,42.87
2018-03-20T12:00:36.113Z,42.57
2018-03-20T12:03:04.826Z,42.13
2018-03-20T12:05:33.403Z,41.69
2018-03-20T12:11:06.636Z,40.75
2018-03-20T12:13:35.176Z,40.75
2018-03-20T12:16:03.745Z,41.46
2018-03-20T12:18:32.222Z,40.25
2018-03-20T12:21:00.839Z,40.45
2018-03-20T12:23:29.926Z,39.13
2018-03-20T12:25:58.374Z,39.94
2018-03-20T12:28:26.861Z,41.03
2018-03-20T12:30:55.465Z,41.28
2018-03-20T12:33:23.959Z,40.53
2018-03-20T12:35:53.083Z,41.09
2018-03-20T12:38:21.529Z,41.15
2018-03-20T12:40:49.987Z,41.06
2018-03-20T12:43:18.498Z,40.00
2018-03-20T12:45:47.045Z,40.65
2018-03-20T12:48:15.669Z,40.52
2018-03-20T12:50:44.354Z,39.85
2018-03-20T12:53:13.165Z,39.01
2018-03-20T12:55:41.695Z,40.21
2018-03-20T12:58:12.487Z,39.49
2018-03-20T13:00:41.078Z,39.84
2018-03-20T13:03:09.923Z,40.32
2018-03-20T13:05:38.644Z,39.16
2018-03-20T13:08:07.403Z,38.68
2018-03-20T13:10:36.457Z,39.13
2018-03-20T13:13:05.505Z,39.72
2018-03-20T13:15:41.346Z,40.02
2018-03-20T13:18:09.927Z,39.10
2018-03-20T13:20:38.514Z,40.00
2018-03-20T13:23:07.228Z,38.52
2018-03-20T13:25:36.291Z,39.41
2018-03-20T13:28:04.985Z,37.71
2018-03-20T13:30:33.562Z,38.16
2018-03-20T13:33:02.188Z,38.32
2018-03-20T13:35:30.879Z,39.11
2018-03-20T13:37:59.405Z,38.82
2018-03-20T13:40:30.636Z,37.88
2018-03-20T13:42:59.148Z,38.22
2018-03-20T13:45:28.227Z,39.33
2018-03-20T13:47:56.753Z,40.32
2018-03-20T13:50:25.321Z,41.02
2018-03-20T13:52:53.791Z,41.77
2018-03-20T13:55:23.219Z,42.67
2018-03-20T13:57:51.680Z,43.35
2018-03-20T14:00:20.256Z,42.49
2018-03-20T14:02:49.609Z,43.17
2018-03-20T14:05:20.798Z,42.99
2018-03-20T14:07:49.378Z,42.32
2018-03-20T14:10:18.272Z,42.89
2018-03-20T14:12:46.955Z,42.58
2018-03-20T14:15:15.535Z,42.69
2018-03-20T14:17:44.124Z,42.50
2018-03-20T14:20:12.621Z,42.37
2018-03-20T14:22:41.193Z,42.86
2018-03-20T14:25:10.405Z,42.58
2018-03-20T14:27:39.295Z,42.91
2018-03-20T14:30:07.962Z,43.00
2018-03-20T14:32:37.327Z,43.12
2018-03-20T14:35:06.176Z,42.69
2018-03-20T14:37:34.941Z,43.30
2018-03-20T14:40:04.271Z,42.45
2018-03-20T14:42:33.261Z,42.39
2018-03-20T14:45:01.731Z,43.29
2018-03-20T14:47:31.315Z,42.59
2018-03-20T14:49:59.799Z,42.59
2018-03-20T14:52:28.281Z,42.36
2018-03-20T14:54:57.022Z,42.31
2018-03-20T14:57:25.550Z,41.96
2018-03-20T14:59:54.032Z,41.88
2018-03-20T15:02:22.532Z,41.84
2018-03-20T15:04:52.132Z,41.52
2018-03-20T15:07:20.737Z,40.76
2018-03-20T15:09:49.519Z,41.29
2018-03-20T15:12:18.180Z,41.94
2018-03-20T15:14:49.742Z,41.82
2018-03-20T15:17:18.940Z,41.22
2018-03-20T15:19:48.177Z,41.36
2018-03-20T15:22:16.720Z,41.69
2018-03-20T15:24:45.312Z,41.65
2018-03-20T15:27:13.909Z,41.96
2018-03-20T15:29:42.509Z,41.79
2018-03-20T15:32:11.360Z,41.70
2018-03-20T15:34:40.050Z,42.21
2018-03-20T15:37:08.985Z,41.86
2018-03-20T15:39:39.748Z,41.55
2018-03-20T15:42:08.398Z,41.33
2018-03-20T15:44:37.166Z,41.22
2018-03-20T15:47:06.341Z,41.38
2018-03-20T15:49:34.927Z,41.39
2018-03-20T15:52:03.948Z,41.34
2018-03-20T15:54:32.645Z,41.00
2018-03-20T15:57:01.186Z,41.31
2018-03-20T15:59:29.696Z,41.19
2018-03-20T16:01:58.281Z,41.48
2018-03-20T16:04:26.838Z,41.56
2018-03-20T16:06:55.339Z,41.77
2018-03-20T16:09:24.104Z,42.18
2018-03-20T16:11:52.587Z,42.16
2018-03-20T16:14:21.368Z,42.03
2018-03-20T16:16:49.867Z,42.14
2018-03-20T16:19:18.451Z,42.26
2018-03-20T16:21:47.170Z,42.49
2018-03-20T16:24:16.131Z,42.58
2018-03-20T16:26:45.182Z,42.68
2018-03-20T16:29:14.310Z,42.21
2018-03-20T16:31:43.616Z,42.34
2018-03-20T16:34:12.141Z,42.70
2018-03-20T16:36:40.698Z,42.71
2018-03-20T16:39:10.153Z,42.64
2018-03-20T16:41:39.622Z,42.62
2018-03-20T16:44:08.531Z,42.68
2018-03-20T16:46:37.699Z,42.28
2018-03-20T16:49:06.686Z,42.33
2018-03-20T16:51:35.506Z,42.63
2018-03-20T16:54:04.685Z,42.75
2018-03-20T16:56:33.930Z,42.61
2018-03-20T16:59:03.501Z,42.42
2018-03-20T17:01:32.734Z,42.79
2018-03-20T17:04:01.446Z,42.86
2018-03-20T17:06:29.982Z,42.76
2018-03-20T17:08:58.587Z,42.90
2018-03-20T17:11:27.108Z,43.28
2018-03-20T17:13:55.684Z,42.96
2018-03-20T17:16:24.336Z,43.36
2018-03-20T17:18:53.051Z,43.47
2018-03-20T17:21:21.851Z,43.23
2018-03-20T17:23:50.442Z,43.35
2018-03-20T17:26:18.909Z,43.19
2018-03-20T17:28:48.142Z,43.72
2018-03-20T17:31:17.557Z,43.92
2018-03-20T17:33:46.094Z,44.10
2018-03-20T17:36:14.772Z,44.25
2018-03-20T17:38:43.916Z,44.09
2018-03-20T17:41:12.570Z,44.39
2018-03-20T17:43:41.184Z,44.34
2018-03-20T17:46:10.901Z,44.43
2018-03-20T17:48:39.792Z,44.69
2018-03-20T17:51:08.321Z,45.00
2018-03-20T17:53:37.554Z,45.00
2018-03-20T17:56:06.139Z,45.37
2018-03-20T17:58:34.897Z,45.24
2018-03-20T18:01:03.883Z,45.31
2018-03-20T18:03:32.471Z,45.64
2018-03-20T18:06:00.986Z,45.90
2018-03-20T18:08:29.715Z,46.00
2018-03-20T18:10:58.427Z,46.36
2018-03-20T18:13:26.941Z,46.57
2018-03-20T18:16:00.137Z,46.59
2018-03-20T18:18:29.224Z,46.89
2018-03-20T18:20:58.631Z,46.67
2018-03-20T18:23:29.120Z,46.66
2018-03-20T18:25:57.611Z,46.97
2018-03-20T18:28:26.882Z,47.18
2018-03-20T18:30:55.459Z,47.26
2018-03-20T18:33:25.249Z,47.27
2018-03-20T18:35:54.245Z,47.13
2018-03-20T18:38:25.021Z,47.52
2018-03-20T18:40:53.650Z,47.94
2018-03-20T18:43:22.981Z,47.79
2018-03-20T18:45:52.062Z,47.92
2018-03-20T18:48:21.562Z,48.10
2018-03-20T18:50:50.164Z,48.50
2018-03-20T18:53:20.648Z,48.38
2018-03-20T18:55:50.144Z,48.39
2018-03-20T18:58:19.276Z,48.27
2018-03-20T19:00:49.876Z,48.44
2018-03-20T19:03:18.540Z,48.78
2018-03-20T19:05:47.482Z,48.73
2018-03-20T19:08:16.199Z,49.10
2018-03-20T19:10:45.324Z,49.05
2018-03-20T19:13:15.533Z,49.87
2018-03-20T19:15:46.892Z,49.74
2018-03-20T19:18:15.670Z,49.82
2018-03-20T19:20:44.384Z,49.84
2018-03-20T19:23:19.988Z,49.78
2018-03-20T19:25:53.095Z,49.49
2018-03-20T19:28:27.838Z,49.50
2018-03-20T19:30:56.416Z,49.64
2018-03-20T19:33:25.921Z,49.74
2018-03-20T19:35:54.489Z,49.88
2018-03-20T19:38:23.159Z,50.10
2018-03-20T19:40:51.803Z,50.29
2018-03-20T19:43:21.138Z,50.32
2018-03-20T19:45:53.244Z,50.34
2018-03-20T19:48:24.705Z,50.52
2018-03-20T19:50:53.587Z,50.90
2018-03-20T19:53:25.770Z,51.11
2018-03-20T19:55:56.596Z,51.14
2018-03-20T19:58:25.214Z,51.00
2018-03-20T20:00:54.411Z,51.19
2018-03-20T20:03:26.260Z,51.71
2018-03-20T20:05:54.998Z,52.16
2018-03-20T20:08:23.581Z,52.26
2018-03-20T20:10:52.145Z,52.52
2018-03-20T20:13:20.775Z,52.52
2018-03-20T20:15:49.457Z,52.54
2018-03-20T20:18:18.151Z,52.76
2018-03-20T20:20:46.889Z,52.90
2018-03-20T20:23:15.783Z,53.35
2018-03-20T20:25:45.803Z,53.42
2018-03-20T20:28:14.358Z,53.72
2018-03-20T20:30:42.995Z,53.49
2018-03-20T20:33:11.937Z,53.87
2018-03-20T20:35:40.599Z,54.15
2018-03-20T20:38:09.955Z,54.50
2018-03-20T20:40:38.882Z,54.38
2018-03-20T20:43:07.773Z,54.48
2018-03-20T20:45:36.520Z,54.51
2018-03-20T20:48:05.790Z,54.29
2018-03-20T20:50:35.443Z,53.93
2018-03-20T20:53:04.155Z,53.59
2018-03-20T20:55:33.481Z,53.36
2018-03-20T20:58:03.328Z,53.96
2018-03-20T21:00:32.368Z,55.19
2018-03-20T21:03:00.949Z,56.29
2018-03-20T21:05:29.636Z,56.96
2018-03-20T21:07:58.221Z,57.32
2018-03-20T21:10:26.910Z,57.67
2018-03-20T21:12:55.436Z,57.90
2018-03-20T21:15:24.147Z,57.84
2018-03-20T21:17:52.810Z,58.04
2018-03-20T21:20:21.787Z,58.06
2018-03-20T21:22:50.329Z,58.38
2018-03-20T21:25:19.303Z,58.13
2018-03-20T21:27:48.528Z,57.93
2018-03-20T21:30:17.132Z,57.40
2018-03-20T21:32:46.570Z,57.42
2018-03-20T21:35:15.292Z,57.53
2018-03-20T21:37:44.177Z,58.15
2018-03-20T21:40:12.985Z,58.74
2018-03-20T21:42:41.673Z,58.83
2018-03-20T21:45:10.545Z,59.00
2018-03-20T21:47:39.559Z,59.07
2018-03-20T21:50:08.357Z,58.95
2018-03-20T21:52:37.178Z,58.96
2018-03-20T21:55:05.922Z,59.14
2018-03-20T21:57:34.562Z,59.25
2018-03-20T22:00:03.171Z,59.01
2018-03-20T22:02:32.030Z,58.65
2018-03-20T22:05:00.920Z,58.26
2018-03-20T22:07:29.375Z,57.89
2018-03-20T22:09:58.010Z,57.85
2018-03-20T22:12:26.488Z,57.46
2018-03-20T22:14:55.047Z,57.62
2018-03-20T22:17:23.584Z,57.94
2018-03-20T22:19:52.239Z,57.52
2018-03-20T22:22:20.696Z,57.14
2018-03-20T22:24:49.208Z,57.21
2018-03-20T22:27:17.709Z,57.33
2018-03-20T22:29:46.197Z,56.89
2018-03-20T22:32:14.726Z,56.65
2018-03-20T22:34:43.218Z,56.58
2018-03-20T22:37:11.812Z,56.93
2018-03-20T22:39:40.394Z,57.14
2018-03-20T22:42:09.191Z,57.23
2018-03-20T22:44:38.050Z,57.75
2018-03-20T22:47:06.894Z,58.14
2018-03-20T22:49:35.452Z,58.42
2018-03-20T22:52:03.999Z,58.08
2018-03-20T22:54:32.827Z,58.33
2018-03-20T22:57:01.479Z,58.68
2018-03-20T22:59:30.061Z,58.71
2018-03-20T23:01:58.952Z,58.69
2018-03-20T23:04:28.360Z,58.57
2018-03-20T23:06:57.124Z,58.95
2018-03-20T23:09:25.784Z,58.61
2018-03-20T23:11:54.759Z,58.24
2018-03-20T23:14:23.333Z,58.18
2018-03-20T23:16:52.012Z,57.92
2018-03-20T23:19:20.500Z,57.92
2018-03-20T23:21:49.057Z,58.33
2018-03-20T23:24:17.900Z,58.70
2018-03-20T23:26:46.546Z,58.72
2018-03-20T23:29:15.191Z,58.90
2018-03-20T23:31:44.307Z,58.50
2018-03-20T23:34:12.989Z,58.14
2018-03-20T23:36:41.522Z,58.39
2018-03-20T23:39:10.107Z,58.79
2018-03-20T23:41:38.954Z,59.15
2018-03-20T23:44:07.496Z,59.18
2018-03-20T23:46:35.986Z,59.30
2018-03-20T23:49:04.665Z,59.40
2018-03-20T23:51:33.095Z,59.42
2018-03-20T23:54:01.601Z,59.86
2018-03-20T23:56:30.262Z,59.91
2018-03-20T23:58:58.686Z,59.87
